Flugplatz Dahlemer Binz

Für EDKV sind keine METAR/TAF Berichte vorhanden.
Es werden die Flugwettermeldungen vom Flugplatz Buchel Airport in 45 km Entfernung angezeigt.

Bericht für ETSB

vom 25.01. um 23:20 UTC

Wind 3 kt aus 310°

Sichtweite 4500 m

Temperatur 0.0°C

Taupunkt 0.0°C

Luftfeuchtigkeit 100%

Luftdruck 1018 hPa

ETSB 252320Z AUTO 31003KT 4500 // ////// 00/M00 Q1018 ///
Keine Prognose (TAF) verfügbar.
Impressum